KGHG

Details ICAO KGHG (GHG)
Name MARSHFIELD MUNI GEORGE HARLOW FLD
Region United States
Timezone America/New_York (UTC-4.0)
Plans Departing 4
Arriving 5
Stats Elevation 11 ft / 3 m (AMSL)
Location 42.098236° -70.672132°
Runways 1
Magnetic Variation 14.710° W
Sunrise 2018-05-26 09:14:12 UTC / 2018-05-26 05:14:12 Local
Sunset 2018-05-27 00:08:10 UTC / 2018-05-26 20:08:10 Local
Advertisement - Login to hide

Runways

ID Width Length Bearing (true) Bearing (mag) Surface Threshold Offset Overrun Length
06 75 ft / 23 m 3,000 ft / 914 m 46.00° 60.71° Asphalt 0 ft / 0 m 0 ft / 0 m
24 75 ft / 23 m 3,000 ft / 914 m 226.00° 240.71° Asphalt 0 ft / 0 m 0 ft / 0 m

Map

Weather


0- 5 10 15 20 25 30 35+ Temperature / ° C

Clouds and Precipitation
Forecast for 2018-05-26 06:00 UTC. Updated an hour ago

Ground ~20,000 ft ~40,000 ft Winds

METAR

KGHG 260635Z AUTO 24006G12KT 10SM CLR 20/15 A2973 RMK AO2

TAF

Not found

Frequencies

Recorded 120.00 MHz AWOS 3
Approach 124.10 MHz BOSTON APP/DEP
Unicom 122.80 MHz CTAF/UNICOM
Warning: Do not use this data for real-world aviation or navigation. No guarantee of current accuracy is given.